createdAt,value
2022-08-30T00:02:10.770Z,101842.00
2022-08-30T00:04:37.662Z,101840.00
2022-08-30T00:07:04.794Z,101846.00
2022-08-30T00:09:32.644Z,101846.00
2022-08-30T00:11:59.623Z,101842.00
2022-08-30T00:14:27.521Z,101844.00
2022-08-30T00:16:54.444Z,101845.00
2022-08-30T00:19:21.300Z,101852.00
2022-08-30T00:21:48.146Z,101844.00
2022-08-30T00:24:15.281Z,101846.00
2022-08-30T00:26:42.101Z,101855.00
2022-08-30T00:29:08.884Z,101837.00
2022-08-30T00:31:35.825Z,101836.00
2022-08-30T00:34:02.889Z,101845.00
2022-08-30T00:36:29.685Z,101856.00
2022-08-30T00:38:56.589Z,101856.00
2022-08-30T00:41:23.482Z,101854.00
2022-08-30T00:43:50.346Z,101843.00
2022-08-30T00:46:17.251Z,101861.00
2022-08-30T00:48:47.258Z,101849.00
2022-08-30T00:51:15.565Z,101856.00
2022-08-30T00:53:48.187Z,101855.00
2022-08-30T00:56:15.477Z,101855.00
2022-08-30T00:58:45.504Z,101854.00
2022-08-30T01:01:13.028Z,101865.00
2022-08-30T01:03:40.824Z,101870.00
2022-08-30T01:06:07.936Z,101872.00
2022-08-30T01:08:35.314Z,101869.00
2022-08-30T01:11:03.736Z,101873.00
2022-08-30T01:13:31.242Z,101863.00
2022-08-30T01:16:00.158Z,101871.00
2022-08-30T01:18:27.723Z,101875.00
2022-08-30T01:21:28.992Z,101878.00
2022-08-30T01:23:58.891Z,101884.00
2022-08-30T01:26:27.794Z,101889.00
2022-08-30T01:28:59.583Z,101886.00
2022-08-30T01:31:27.969Z,101888.00
2022-08-30T01:33:54.940Z,101874.00
2022-08-30T01:36:21.914Z,101884.00
2022-08-30T01:38:56.889Z,101882.00
2022-08-30T01:41:30.264Z,101890.00
2022-08-30T01:43:58.697Z,101885.00
2022-08-30T01:46:29.293Z,101896.00
2022-08-30T01:48:58.072Z,101882.00
2022-08-30T01:51:27.519Z,101892.00
2022-08-30T01:53:54.930Z,101890.00
2022-08-30T01:56:22.824Z,101886.00
2022-08-30T01:58:49.885Z,101898.00
2022-08-30T02:01:19.801Z,101890.00
2022-08-30T02:03:48.490Z,101887.00
2022-08-30T02:06:18.408Z,101890.00
2022-08-30T02:08:45.507Z,101879.00
2022-08-30T02:11:12.817Z,101888.00
2022-08-30T02:13:40.967Z,101885.00
2022-08-30T02:16:09.958Z,101895.00
2022-08-30T02:18:37.640Z,101898.00
2022-08-30T02:21:04.788Z,101892.00
2022-08-30T02:23:31.612Z,101894.00
2022-08-30T02:25:58.936Z,101885.00
2022-08-30T02:28:26.016Z,101885.00
2022-08-30T02:30:53.640Z,101882.00
2022-08-30T02:33:20.582Z,101887.00
2022-08-30T02:35:47.708Z,101892.00
2022-08-30T02:38:14.700Z,101883.00
2022-08-30T02:40:41.875Z,101881.00
2022-08-30T02:43:08.875Z,101878.00
2022-08-30T02:45:35.773Z,101885.00
2022-08-30T02:48:02.971Z,101877.00
2022-08-30T02:50:29.785Z,101883.00
2022-08-30T02:52:57.144Z,101885.00
2022-08-30T02:55:24.042Z,101882.00
2022-08-30T02:57:50.824Z,101874.00
2022-08-30T03:00:20.324Z,101878.00
2022-08-30T03:02:47.382Z,101886.00
2022-08-30T03:05:15.193Z,101888.00
2022-08-30T03:07:42.343Z,101884.00
2022-08-30T03:10:10.896Z,101878.00
2022-08-30T03:12:38.192Z,101881.00
2022-08-30T03:15:06.578Z,101889.00
2022-08-30T03:17:33.483Z,101883.00
2022-08-30T03:20:02.261Z,101878.00
2022-08-30T03:22:29.395Z,101892.00
2022-08-30T03:25:01.367Z,101883.00
2022-08-30T03:27:29.210Z,101882.00
2022-08-30T03:29:56.467Z,101885.00
2022-08-30T03:32:23.594Z,101878.00
2022-08-30T03:34:50.452Z,101882.00
2022-08-30T03:37:17.456Z,101884.00
2022-08-30T03:39:45.581Z,101892.00
2022-08-30T03:42:12.712Z,101886.00
2022-08-30T03:44:39.919Z,101879.00
2022-08-30T03:47:08.436Z,101896.00
2022-08-30T03:49:35.236Z,101884.00
2022-08-30T03:52:02.269Z,101892.00
2022-08-30T03:54:29.137Z,101889.00
2022-08-30T03:56:56.302Z,101894.00
2022-08-30T03:59:23.576Z,101882.00
2022-08-30T04:01:50.522Z,101881.00
2022-08-30T04:04:20.921Z,101885.00
2022-08-30T04:06:49.219Z,101891.00
2022-08-30T04:09:16.406Z,101902.00
2022-08-30T04:11:43.259Z,101901.00
2022-08-30T04:14:10.094Z,101896.00
2022-08-30T04:16:36.918Z,101893.00
2022-08-30T04:19:04.053Z,101903.00
2022-08-30T04:21:31.034Z,101891.00
2022-08-30T04:23:57.917Z,101896.00
2022-08-30T04:26:29.282Z,101887.00
2022-08-30T04:28:56.583Z,101885.00
2022-08-30T04:31:23.698Z,101895.00
2022-08-30T04:33:50.695Z,101898.00
2022-08-30T04:36:17.566Z,101901.00
2022-08-30T04:38:44.343Z,101900.00
2022-08-30T04:41:16.296Z,101902.00
2022-08-30T04:43:49.083Z,101902.00
2022-08-30T04:46:16.441Z,101901.00
2022-08-30T04:48:43.429Z,101908.00
2022-08-30T04:51:14.111Z,101905.00
2022-08-30T04:53:43.878Z,101901.00
2022-08-30T04:56:13.388Z,101910.00
2022-08-30T04:58:40.149Z,101917.00
2022-08-30T05:01:12.401Z,101912.00
2022-08-30T05:03:41.082Z,101921.00
2022-08-30T05:06:07.968Z,101916.00
2022-08-30T05:08:34.795Z,101927.00
2022-08-30T05:11:04.678Z,101923.00
2022-08-30T05:13:35.771Z,101921.00
2022-08-30T05:16:06.237Z,101928.00
2022-08-30T05:18:33.476Z,101922.00
2022-08-30T05:21:08.921Z,101934.00
2022-08-30T05:23:38.749Z,101931.00
2022-08-30T05:26:12.131Z,101931.00
2022-08-30T05:28:39.606Z,101935.00
2022-08-30T05:31:15.483Z,101932.00
2022-08-30T05:33:43.673Z,101925.00
2022-08-30T05:36:11.885Z,101930.00
2022-08-30T05:38:39.294Z,101928.00
2022-08-30T05:41:10.750Z,101931.00
2022-08-30T05:43:38.906Z,101933.00
2022-08-30T05:46:11.400Z,101939.00
2022-08-30T05:48:40.680Z,101943.00
2022-08-30T05:51:17.577Z,101954.00
2022-08-30T05:53:45.674Z,101943.00
2022-08-30T05:56:14.712Z,101949.00
2022-08-30T05:58:42.019Z,101951.00
2022-08-30T06:01:18.697Z,101942.00
2022-08-30T06:03:45.482Z,101940.00
2022-08-30T06:06:12.263Z,101938.00
2022-08-30T06:08:39.034Z,101939.00
2022-08-30T06:11:05.885Z,101951.00
2022-08-30T06:13:32.694Z,101956.00
2022-08-30T06:15:59.587Z,101947.00
2022-08-30T06:18:28.407Z,101963.00
2022-08-30T06:20:55.706Z,101960.00
2022-08-30T06:23:22.827Z,101951.00
2022-08-30T06:25:49.644Z,101950.00
2022-08-30T06:28:16.948Z,101955.00
2022-08-30T06:30:44.981Z,101964.00
2022-08-30T06:33:13.891Z,101953.00
2022-08-30T06:35:56.825Z,101958.00
2022-08-30T06:38:26.108Z,101978.00
2022-08-30T06:40:52.890Z,101981.00
2022-08-30T06:43:19.854Z,101973.00
2022-08-30T06:45:46.713Z,101973.00
2022-08-30T06:48:14.740Z,102008.00
2022-08-30T06:50:42.213Z,102011.00
2022-08-30T06:53:09.903Z,102005.00
2022-08-30T06:55:37.424Z,102045.00
2022-08-30T06:58:04.534Z,102049.00
2022-08-30T07:00:31.380Z,102049.00
2022-08-30T07:02:58.893Z,102066.00
2022-08-30T07:05:25.799Z,102069.00
2022-08-30T07:07:55.471Z,102062.00
2022-08-30T07:10:22.294Z,102066.00
2022-08-30T07:12:49.358Z,102066.00
2022-08-30T07:15:16.438Z,102074.00
2022-08-30T07:18:01.775Z,102074.00
2022-08-30T07:20:40.024Z,102085.00
2022-08-30T07:23:08.620Z,102075.00
2022-08-30T07:25:39.819Z,102101.00
2022-08-30T07:28:07.904Z,102088.00
2022-08-30T07:30:35.200Z,102104.00
2022-08-30T07:33:02.268Z,102111.00
2022-08-30T07:35:29.065Z,102127.00
2022-08-30T07:37:55.885Z,102111.00
2022-08-30T07:40:22.783Z,102120.00
2022-08-30T07:42:49.735Z,102119.00
2022-08-30T07:45:16.930Z,102118.00
2022-08-30T07:47:43.783Z,102129.00
2022-08-30T07:50:10.764Z,102131.00
2022-08-30T07:55:10.064Z,102134.00
2022-08-30T07:57:37.109Z,102135.00
2022-08-30T08:00:05.180Z,102136.00
2022-08-30T08:02:32.942Z,102136.00
2022-08-30T08:05:00.779Z,102144.00
2022-08-30T08:07:27.633Z,102108.00
2022-08-30T08:09:54.501Z,102121.00
2022-08-30T08:12:21.325Z,102106.00
2022-08-30T08:14:48.188Z,102086.00
2022-08-30T08:17:15.000Z,102102.00
2022-08-30T08:19:41.826Z,102101.00
2022-08-30T08:22:20.626Z,102100.00
2022-08-30T08:24:48.957Z,102102.00
2022-08-30T08:27:16.484Z,102105.00
2022-08-30T08:29:43.355Z,102118.00
2022-08-30T08:32:10.225Z,102103.00
2022-08-30T08:34:37.395Z,102107.00
2022-08-30T08:37:04.426Z,102104.00
2022-08-30T08:39:31.329Z,102108.00
2022-08-30T08:42:04.328Z,102117.00
2022-08-30T08:44:34.446Z,102114.00
2022-08-30T08:47:22.732Z,102120.00
2022-08-30T08:49:51.724Z,102145.00
2022-08-30T08:52:54.953Z,102142.00
2022-08-30T08:55:22.783Z,102151.00
2022-08-30T08:57:49.952Z,102147.00
2022-08-30T09:00:17.003Z,102155.00
2022-08-30T09:02:47.415Z,102144.00
2022-08-30T09:05:22.090Z,102173.00
2022-08-30T09:07:54.249Z,102187.00
2022-08-30T09:10:40.415Z,102201.00
2022-08-30T09:13:08.344Z,102210.00
2022-08-30T09:15:40.947Z,102188.00
2022-08-30T09:18:19.186Z,102212.00
2022-08-30T09:20:50.392Z,102210.00
2022-08-30T09:23:29.989Z,102217.00
2022-08-30T09:26:05.614Z,102210.00
2022-08-30T09:28:49.471Z,102212.00
2022-08-30T09:31:19.458Z,102212.00
2022-08-30T09:34:06.237Z,102207.00
2022-08-30T09:37:03.069Z,102211.00
2022-08-30T09:39:37.407Z,102218.00
2022-08-30T09:42:14.367Z,102215.00
2022-08-30T09:47:24.175Z,102220.00
2022-08-30T09:52:12.396Z,102214.00
2022-08-30T09:55:19.873Z,102190.00
2022-08-30T09:58:05.837Z,102203.00
2022-08-30T10:00:37.454Z,102188.00
2022-08-30T10:03:43.731Z,102217.00
2022-08-30T10:06:19.547Z,102246.00
2022-08-30T10:08:51.588Z,102226.00
2022-08-30T10:11:24.461Z,102204.00
2022-08-30T10:14:19.606Z,102212.00
2022-08-30T10:16:58.378Z,102229.00
2022-08-30T10:19:47.271Z,102238.00
2022-08-30T10:22:15.578Z,102229.00
2022-08-30T10:24:50.192Z,102233.00
2022-08-30T10:30:13.849Z,102242.00
2022-08-30T10:33:28.749Z,102246.00
2022-08-30T10:36:02.635Z,102229.00
2022-08-30T10:38:37.269Z,102260.00
2022-08-30T10:41:33.394Z,102247.00
2022-08-30T10:44:26.811Z,102274.00
2022-08-30T10:47:23.441Z,102264.00
2022-08-30T10:49:55.217Z,102249.00
2022-08-30T10:52:54.498Z,102264.00
2022-08-30T10:55:22.199Z,102249.00
2022-08-30T10:57:50.080Z,102253.00
2022-08-30T11:00:28.249Z,102258.00
2022-08-30T11:03:36.835Z,102259.00
2022-08-30T11:06:12.101Z,102250.00
2022-08-30T11:08:52.086Z,102261.00
2022-08-30T11:11:55.897Z,102245.00
2022-08-30T11:14:25.470Z,102254.00
2022-08-30T11:17:00.204Z,102262.00
2022-08-30T11:19:41.442Z,102262.00
2022-08-30T11:22:38.144Z,102273.00
2022-08-30T11:25:15.928Z,102275.00
2022-08-30T11:27:53.252Z,102285.00
2022-08-30T11:30:26.970Z,102266.00
2022-08-30T11:33:24.711Z,102288.00
2022-08-30T11:35:53.585Z,102272.00
2022-08-30T11:38:26.577Z,102275.00
2022-08-30T11:40:56.597Z,102288.00
2022-08-30T11:43:36.558Z,102263.00
2022-08-30T11:46:26.913Z,102269.00
2022-08-30T11:48:59.365Z,102270.00
2022-08-30T11:51:38.430Z,102256.00
2022-08-30T11:54:20.509Z,102268.00
2022-08-30T11:56:54.593Z,102255.00
2022-08-30T11:59:55.485Z,102270.00
2022-08-30T12:02:44.881Z,102271.00
2022-08-30T12:05:53.175Z,102262.00
2022-08-30T12:08:21.314Z,102261.00
2022-08-30T12:11:02.514Z,102255.00
2022-08-30T12:13:37.256Z,102244.00
2022-08-30T12:16:23.950Z,102255.00
2022-08-30T12:18:53.864Z,102257.00
2022-08-30T12:21:22.221Z,102256.00
2022-08-30T12:23:52.485Z,102254.00
2022-08-30T12:26:26.123Z,102270.00
2022-08-30T12:29:13.195Z,102250.00
2022-08-30T12:31:45.899Z,102251.00
2022-08-30T12:34:43.551Z,102251.00
2022-08-30T12:37:28.673Z,102244.00
2022-08-30T12:40:18.651Z,102254.00
2022-08-30T12:43:01.052Z,102262.00
2022-08-30T12:45:43.072Z,102264.00
2022-08-30T12:48:12.317Z,102265.00
2022-08-30T12:50:53.057Z,102250.00
2022-08-30T12:53:32.024Z,102260.00
2022-08-30T12:56:11.067Z,102257.00
2022-08-30T12:58:51.639Z,102239.00
2022-08-30T13:01:31.265Z,102226.00
2022-08-30T13:03:58.391Z,102236.00
2022-08-30T13:06:39.826Z,102216.00
2022-08-30T13:09:06.999Z,102215.00
2022-08-30T13:11:34.336Z,102190.00
2022-08-30T13:14:29.674Z,102188.00
2022-08-30T13:17:21.439Z,102171.00
2022-08-30T13:20:09.521Z,102166.00
2022-08-30T13:22:38.573Z,102172.00
2022-08-30T13:25:07.849Z,102200.00
2022-08-30T13:35:13.449Z,102163.00
2022-08-30T13:37:50.090Z,102172.00
2022-08-30T13:40:19.744Z,102177.00
2022-08-30T13:42:46.889Z,102168.00
2022-08-30T13:48:11.439Z,102169.00
2022-08-30T13:50:38.970Z,102167.00
2022-08-30T13:53:05.981Z,102156.00
2022-08-30T13:55:34.183Z,102174.00
2022-08-30T13:58:05.365Z,102164.00
2022-08-30T14:00:36.766Z,102165.00
2022-08-30T14:03:05.579Z,102157.00
2022-08-30T14:06:09.860Z,102169.00
2022-08-30T14:08:49.213Z,102153.00
2022-08-30T14:11:19.388Z,102148.00
2022-08-30T14:16:35.188Z,102171.00
2022-08-30T14:19:02.408Z,102152.00
2022-08-30T14:21:29.465Z,102172.00
2022-08-30T14:23:57.954Z,102171.00
2022-08-30T14:26:33.069Z,102176.00
2022-08-30T14:29:06.093Z,102183.00
2022-08-30T14:31:40.735Z,102179.00
2022-08-30T14:34:09.837Z,102161.00
2022-08-30T14:36:41.398Z,102171.00
2022-08-30T14:39:11.951Z,102164.00
2022-08-30T14:44:54.796Z,102174.00
2022-08-30T14:47:20.478Z,102165.00
2022-08-30T14:49:47.560Z,102163.00
2022-08-30T14:52:14.647Z,102167.00
2022-08-30T14:54:41.481Z,102162.00
2022-08-30T14:57:08.396Z,102170.00
2022-08-30T14:59:35.233Z,102165.00
2022-08-30T15:02:03.301Z,102182.00
2022-08-30T15:04:30.297Z,102182.00
2022-08-30T15:06:57.988Z,102178.00
2022-08-30T15:09:25.549Z,102179.00
2022-08-30T15:11:55.112Z,102166.00
2022-08-30T15:14:22.598Z,102169.00
2022-08-30T15:16:49.500Z,102145.00
2022-08-30T15:19:17.681Z,102162.00
2022-08-30T15:21:48.411Z,102161.00
2022-08-30T15:24:19.034Z,102177.00
2022-08-30T15:26:51.997Z,102180.00
2022-08-30T15:29:20.097Z,102158.00
2022-08-30T15:31:49.681Z,102163.00
2022-08-30T15:34:19.177Z,102171.00
2022-08-30T15:36:47.008Z,102178.00
2022-08-30T15:39:15.313Z,102166.00
2022-08-30T15:41:44.312Z,102162.00
2022-08-30T15:44:12.305Z,102172.00
2022-08-30T15:46:43.120Z,102153.00
2022-08-30T15:49:14.460Z,102148.00
2022-08-30T15:51:46.084Z,102173.00
2022-08-30T15:54:15.610Z,102176.00
2022-08-30T15:56:44.219Z,102165.00
2022-08-30T15:59:12.109Z,102164.00
2022-08-30T16:01:39.187Z,102165.00
2022-08-30T16:04:06.243Z,102149.00
2022-08-30T16:06:35.385Z,102161.00
2022-08-30T16:09:03.770Z,102149.00
2022-08-30T16:11:32.018Z,102156.00
2022-08-30T16:14:09.345Z,102157.00
2022-08-30T16:16:41.010Z,102149.00
2022-08-30T16:19:11.508Z,102142.00
2022-08-30T16:21:41.832Z,102132.00
2022-08-30T16:24:11.499Z,102132.00
2022-08-30T16:26:49.779Z,102129.00
2022-08-30T16:29:25.327Z,102127.00
2022-08-30T16:31:54.186Z,102114.00
2022-08-30T16:34:22.933Z,102122.00
2022-08-30T16:36:50.295Z,102106.00
2022-08-30T16:39:25.054Z,102106.00
2022-08-30T16:41:54.464Z,102118.00
2022-08-30T16:44:29.805Z,102115.00
2022-08-30T16:46:59.172Z,102116.00
2022-08-30T16:49:32.582Z,102118.00
2022-08-30T16:52:03.371Z,102111.00
2022-08-30T16:54:32.138Z,102103.00
2022-08-30T16:57:00.409Z,102114.00
2022-08-30T16:59:27.896Z,102103.00
2022-08-30T17:02:01.164Z,102114.00
2022-08-30T17:04:28.432Z,102107.00
2022-08-30T17:06:55.512Z,102103.00
2022-08-30T17:09:25.757Z,102098.00
2022-08-30T17:52:40.377Z,102074.00
2022-08-30T17:55:22.988Z,102072.00
2022-08-30T18:05:26.640Z,102065.00
2022-08-30T18:08:36.801Z,102065.00
2022-08-30T18:11:09.469Z,102060.00
2022-08-30T18:13:51.479Z,102064.00
2022-08-30T18:17:42.599Z,102063.00
2022-08-30T18:20:15.175Z,102058.00
2022-08-30T18:23:02.805Z,102058.00
2022-08-30T21:29:31.902Z,102053.00
2022-08-30T21:37:36.284Z,102060.00
2022-08-30T21:40:48.758Z,102061.00
2022-08-30T23:04:06.870Z,102082.00
2022-08-30T23:06:33.920Z,102081.00
2022-08-30T23:09:01.434Z,102084.00
2022-08-30T23:11:28.548Z,102096.00
2022-08-30T23:13:57.631Z,102100.00
2022-08-30T23:16:24.672Z,102090.00
2022-08-30T23:18:51.633Z,102086.00
2022-08-30T23:21:25.418Z,102093.00
2022-08-30T23:24:11.834Z,102087.00
2022-08-30T23:26:57.917Z,102093.00
2022-08-30T23:29:44.468Z,102088.00
2022-08-30T23:32:30.335Z,102093.00
2022-08-30T23:35:15.793Z,102095.00
2022-08-30T23:38:01.115Z,102102.00
2022-08-30T23:40:46.639Z,102105.00
2022-08-30T23:43:32.394Z,102102.00
2022-08-30T23:46:19.423Z,102098.00
2022-08-30T23:49:06.751Z,102095.00
2022-08-30T23:51:53.375Z,102099.00
2022-08-30T23:54:38.773Z,102091.00
2022-08-30T23:57:24.338Z,102104.00
